createdAt,value
2019-02-26T00:00:14.835Z,95.59
2019-02-26T00:02:41.757Z,91.02
2019-02-26T00:05:09.672Z,90.76
2019-02-26T00:07:38.807Z,91.61
2019-02-26T00:10:07.133Z,91.25
2019-02-26T00:12:35.637Z,93.03
2019-02-26T00:15:04.227Z,92.88
2019-02-26T00:17:36.075Z,93.60
2019-02-26T00:20:00.194Z,94.91
2019-02-26T00:22:29.587Z,93.50
2019-02-26T00:24:55.871Z,95.47
2019-02-26T00:27:25.688Z,94.74
2019-02-26T00:29:53.134Z,95.01
2019-02-26T00:32:19.604Z,94.48
2019-02-26T00:34:47.530Z,98.08
2019-02-26T00:37:15.426Z,99.54
2019-02-26T00:39:47.472Z,99.31
2019-02-26T00:42:14.759Z,99.77
2019-02-26T00:44:42.666Z,100.00
2019-02-26T00:47:10.578Z,100.00
2019-02-26T00:49:39.474Z,100.00
2019-02-26T00:52:08.688Z,100.00
2019-02-26T00:54:36.604Z,100.00
2019-02-26T00:57:05.419Z,100.00
2019-02-26T00:59:31.083Z,100.00
2019-02-26T01:01:59.404Z,100.00
2019-02-26T01:04:26.910Z,100.00
2019-02-26T01:06:57.279Z,100.00
2019-02-26T01:09:25.185Z,100.00
2019-02-26T01:11:52.358Z,100.00
2019-02-26T01:14:20.316Z,100.00
2019-02-26T01:16:48.279Z,100.00
2019-02-26T01:19:17.542Z,100.00
2019-02-26T01:21:43.335Z,100.00
2019-02-26T01:24:13.138Z,100.00
2019-02-26T01:26:43.504Z,100.00
2019-02-26T01:29:09.015Z,100.00
2019-02-26T01:31:36.934Z,100.00
2019-02-26T01:34:04.813Z,100.00
2019-02-26T01:36:32.717Z,100.00
2019-02-26T01:39:00.628Z,100.00
2019-02-26T01:41:28.569Z,100.00
2019-02-26T01:43:56.454Z,100.00
2019-02-26T01:46:24.356Z,100.00
2019-02-26T01:48:55.062Z,100.00
2019-02-26T01:51:21.874Z,100.00
2019-02-26T01:53:49.839Z,100.00
2019-02-26T01:56:17.711Z,100.00
2019-02-26T01:58:44.798Z,100.00
2019-02-26T02:01:14.296Z,100.00
2019-02-26T02:03:40.686Z,99.73
2019-02-26T02:06:11.778Z,100.00
2019-02-26T02:08:39.292Z,100.00
2019-02-26T02:11:07.560Z,100.00
2019-02-26T02:13:35.669Z,100.00
2019-02-26T02:16:02.120Z,100.00
2019-02-26T02:18:30.036Z,100.00
2019-02-26T02:20:57.940Z,100.00
2019-02-26T02:23:27.957Z,100.00
2019-02-26T02:25:53.847Z,99.83
2019-02-26T02:28:26.226Z,99.47
2019-02-26T02:30:51.780Z,100.00
2019-02-26T02:33:24.190Z,100.00
2019-02-26T02:35:48.481Z,99.53
2019-02-26T02:38:19.433Z,99.55
2019-02-26T02:40:46.281Z,100.00
2019-02-26T02:43:15.199Z,100.00
2019-02-26T02:45:41.332Z,100.00
2019-02-26T02:48:11.607Z,100.00
2019-02-26T02:50:37.407Z,98.89
2019-02-26T02:53:05.297Z,95.24
2019-02-26T02:55:33.196Z,93.59
2019-02-26T02:58:01.276Z,97.43
2019-02-26T03:00:31.276Z,99.26
2019-02-26T03:02:58.351Z,100.00
2019-02-26T03:05:25.001Z,100.00
2019-02-26T03:07:56.186Z,100.00
2019-02-26T03:10:26.092Z,100.00
2019-02-26T03:12:53.851Z,100.00
2019-02-26T03:15:18.720Z,100.00
2019-02-26T03:17:46.607Z,100.00
2019-02-26T03:20:14.512Z,100.00
2019-02-26T03:22:48.322Z,100.00
2019-02-26T03:25:14.882Z,100.00
2019-02-26T03:27:42.642Z,100.00
2019-02-26T03:30:31.779Z,100.00
2019-02-26T03:32:58.424Z,100.00
2019-02-26T03:35:23.295Z,100.00
2019-02-26T03:37:49.620Z,100.00
2019-02-26T03:40:16.165Z,100.00
2019-02-26T03:42:46.267Z,100.00
2019-02-26T03:45:14.570Z,100.00
2019-02-26T03:47:42.479Z,100.00
2019-02-26T03:50:15.083Z,100.00
2019-02-26T03:52:42.975Z,100.00
2019-02-26T03:55:12.128Z,100.00
2019-02-26T03:57:43.636Z,100.00
2019-02-26T04:00:08.761Z,100.00
2019-02-26T04:02:37.415Z,100.00
2019-02-26T04:05:06.095Z,100.00
2019-02-26T04:07:33.355Z,100.00
2019-02-26T04:09:59.266Z,100.00
2019-02-26T04:12:27.149Z,100.00
2019-02-26T04:14:55.063Z,100.00
2019-02-26T04:17:27.955Z,100.00
2019-02-26T04:19:52.828Z,100.00
2019-02-26T04:22:26.649Z,100.00
2019-02-26T04:25:00.710Z,100.00
2019-02-26T04:30:34.079Z,100.00
2019-02-26T04:33:14.104Z,100.00
2019-02-26T04:35:42.229Z,100.00
2019-02-26T04:38:28.485Z,100.00
2019-02-26T04:41:00.161Z,100.00
2019-02-26T04:43:34.153Z,100.00
2019-02-26T04:49:03.307Z,100.00
2019-02-26T04:51:31.272Z,100.00
2019-02-26T04:54:00.235Z,100.00
2019-02-26T04:56:31.281Z,100.00
2019-02-26T04:58:56.127Z,100.00
2019-02-26T05:01:24.045Z,100.00
2019-02-26T05:03:51.990Z,100.00
2019-02-26T05:06:19.921Z,100.00
2019-02-26T05:08:47.811Z,100.00
2019-02-26T05:11:30.825Z,100.00
2019-02-26T05:13:44.783Z,100.00
2019-02-26T05:16:12.706Z,100.00
2019-02-26T05:18:40.641Z,100.00
2019-02-26T05:21:10.843Z,100.00
2019-02-26T05:23:37.373Z,100.00
2019-02-26T05:26:08.103Z,100.00
2019-02-26T05:28:37.646Z,100.00
2019-02-26T05:31:03.603Z,100.00
2019-02-26T05:33:30.983Z,100.00
2019-02-26T05:35:58.169Z,100.00
2019-02-26T05:38:32.488Z,100.00
2019-02-26T05:40:58.485Z,100.00
2019-02-26T05:43:28.218Z,100.00
2019-02-26T05:45:57.438Z,100.00
2019-02-26T05:48:25.397Z,100.00
2019-02-26T05:50:50.646Z,100.00
2019-02-26T05:53:18.539Z,100.00
2019-02-26T05:55:48.738Z,100.00
2019-02-26T05:58:16.401Z,100.00
2019-02-26T06:00:43.290Z,100.00
2019-02-26T06:03:12.813Z,100.00
2019-02-26T06:05:43.435Z,100.00
2019-02-26T06:08:08.268Z,100.00
2019-02-26T06:10:37.118Z,100.00
2019-02-26T06:13:07.506Z,99.63
2019-02-26T06:15:34.177Z,99.25
2019-02-26T06:18:00.929Z,99.20
2019-02-26T06:20:31.351Z,98.11
2019-02-26T06:22:57.496Z,95.06
2019-02-26T06:25:25.401Z,96.75
2019-02-26T06:27:53.342Z,97.69
2019-02-26T06:30:23.133Z,94.74
2019-02-26T06:32:51.049Z,96.37
2019-02-26T06:35:19.460Z,96.69
2019-02-26T06:37:46.860Z,94.11
2019-02-26T06:40:14.772Z,95.50
2019-02-26T06:42:42.700Z,96.64
2019-02-26T06:45:13.278Z,96.96
2019-02-26T06:47:39.417Z,97.37
2019-02-26T06:50:08.059Z,97.17
2019-02-26T06:52:37.455Z,97.18
2019-02-26T06:55:05.939Z,96.61
2019-02-26T06:57:32.059Z,95.83
2019-02-26T07:00:02.266Z,95.71
2019-02-26T07:02:29.867Z,95.61
2019-02-26T07:04:59.795Z,95.55
2019-02-26T07:07:27.766Z,95.91
2019-02-26T07:09:58.121Z,95.45
2019-02-26T07:12:26.382Z,95.59
2019-02-26T07:14:55.348Z,96.83
2019-02-26T07:17:21.299Z,97.25
2019-02-26T07:19:51.223Z,96.59
2019-02-26T07:22:18.377Z,95.96
2019-02-26T07:24:48.280Z,96.17
2019-02-26T07:27:13.944Z,96.02
2019-02-26T07:29:44.364Z,95.70
2019-02-26T07:32:08.772Z,95.47
2019-02-26T07:34:36.664Z,94.96
2019-02-26T07:37:06.410Z,94.53
2019-02-26T07:39:34.402Z,94.29
2019-02-26T07:42:02.287Z,93.47
2019-02-26T07:44:30.184Z,92.90
2019-02-26T07:46:58.822Z,92.33
2019-02-26T07:49:25.988Z,91.99
2019-02-26T07:51:55.519Z,92.12
2019-02-26T07:54:21.779Z,90.51
2019-02-26T07:56:52.031Z,89.45
2019-02-26T07:59:27.279Z,87.26
2019-02-26T08:01:47.114Z,86.26
2019-02-26T08:04:13.505Z,85.65
2019-02-26T08:06:41.299Z,85.06
2019-02-26T08:09:12.035Z,84.48
2019-02-26T08:11:39.190Z,83.43
2019-02-26T08:14:05.092Z,82.53
2019-02-26T08:16:32.944Z,81.16
2019-02-26T08:19:01.418Z,80.84
2019-02-26T08:21:29.686Z,81.53
2019-02-26T08:23:56.660Z,81.69
2019-02-26T08:26:26.641Z,81.37
2019-02-26T08:28:52.603Z,81.98
2019-02-26T08:31:21.276Z,81.22
2019-02-26T08:33:50.946Z,80.93
2019-02-26T08:36:16.449Z,78.63
2019-02-26T08:38:46.239Z,77.00
2019-02-26T08:41:14.131Z,76.17
2019-02-26T08:43:44.155Z,76.01
2019-02-26T08:46:11.696Z,74.45
2019-02-26T08:48:39.469Z,73.77
2019-02-26T08:51:08.471Z,73.45
2019-02-26T08:53:33.603Z,70.14
2019-02-26T08:56:03.953Z,69.41
2019-02-26T08:58:29.437Z,68.23
2019-02-26T09:00:57.991Z,68.52
2019-02-26T09:03:25.938Z,68.13
2019-02-26T09:05:54.407Z,65.65
2019-02-26T09:08:21.972Z,62.62
2019-02-26T09:10:50.889Z,63.27
2019-02-26T09:13:19.753Z,58.61
2019-02-26T09:15:47.777Z,52.97
2019-02-26T09:18:15.677Z,51.03
2019-02-26T09:20:43.632Z,46.80
2019-02-26T09:23:16.378Z,45.85
2019-02-26T09:25:39.443Z,39.31
2019-02-26T09:28:08.246Z,42.91
2019-02-26T09:30:38.352Z,39.66
2019-02-26T09:33:05.861Z,41.38
2019-02-26T09:35:33.103Z,37.58
2019-02-26T09:38:01.000Z,42.44
2019-02-26T09:40:34.432Z,42.30
2019-02-26T09:43:01.491Z,35.31
2019-02-26T09:45:30.211Z,37.63
2019-02-26T09:47:58.067Z,33.53
2019-02-26T09:50:25.210Z,31.20
2019-02-26T09:52:55.858Z,32.83
2019-02-26T09:55:21.049Z,37.54
2019-02-26T09:57:49.035Z,29.15
2019-02-26T10:00:20.306Z,34.31
2019-02-26T10:02:47.159Z,34.93
2019-02-26T10:05:15.822Z,32.29
2019-02-26T10:07:41.557Z,26.98
2019-02-26T10:10:13.595Z,27.42
2019-02-26T10:12:39.401Z,28.41
2019-02-26T10:15:06.873Z,29.87
2019-02-26T10:17:37.532Z,28.59
2019-02-26T10:20:05.028Z,27.25
2019-02-26T10:22:33.193Z,27.41
2019-02-26T10:24:58.554Z,22.90
2019-02-26T10:27:28.462Z,23.79
2019-02-26T10:29:55.315Z,25.74
2019-02-26T10:32:24.235Z,23.76
2019-02-26T10:34:51.437Z,23.18
2019-02-26T10:37:21.278Z,23.83
2019-02-26T10:39:49.829Z,20.49
2019-02-26T10:42:18.030Z,20.55
2019-02-26T10:44:45.041Z,21.62
2019-02-26T10:47:13.028Z,22.19
2019-02-26T10:49:41.933Z,20.17
2019-02-26T10:52:10.863Z,20.27
2019-02-26T10:54:40.547Z,20.92
2019-02-26T10:57:07.597Z,21.09
2019-02-26T10:59:33.743Z,21.04
2019-02-26T11:02:03.129Z,21.11
2019-02-26T11:04:34.779Z,20.54
2019-02-26T11:07:01.689Z,23.03
2019-02-26T11:09:29.915Z,22.97
2019-02-26T11:11:57.849Z,20.28
2019-02-26T11:14:23.439Z,21.29
2019-02-26T11:16:51.377Z,19.15
2019-02-26T11:19:20.275Z,19.19
2019-02-26T11:21:50.827Z,18.03
2019-02-26T11:24:16.087Z,19.51
2019-02-26T11:26:44.104Z,18.17
2019-02-26T11:29:12.011Z,17.90
2019-02-26T11:31:41.879Z,17.40
2019-02-26T11:34:10.958Z,17.44
2019-02-26T11:36:38.297Z,18.97
2019-02-26T11:39:05.057Z,19.03
2019-02-26T11:41:33.510Z,16.48
2019-02-26T11:43:59.671Z,17.66
2019-02-26T11:46:29.745Z,17.66
2019-02-26T11:48:57.498Z,19.90
2019-02-26T11:51:23.458Z,21.04
2019-02-26T11:53:51.375Z,19.43
2019-02-26T11:56:21.314Z,18.10
2019-02-26T11:58:47.219Z,17.56
2019-02-26T12:01:15.126Z,18.51
2019-02-26T12:03:43.925Z,17.95
2019-02-26T12:06:10.984Z,17.34
2019-02-26T12:08:40.599Z,18.01
2019-02-26T12:11:12.285Z,17.99
2019-02-26T12:13:34.856Z,16.68
2019-02-26T12:16:02.770Z,16.61
2019-02-26T12:18:30.740Z,17.15
2019-02-26T12:21:00.200Z,15.87
2019-02-26T12:23:26.575Z,16.85
2019-02-26T12:25:55.546Z,17.71
2019-02-26T12:28:22.401Z,15.89
2019-02-26T12:30:50.303Z,15.42
2019-02-26T12:33:18.441Z,15.54
2019-02-26T12:35:46.340Z,16.38
2019-02-26T12:38:20.682Z,17.24
2019-02-26T12:40:46.387Z,16.27
2019-02-26T12:43:11.785Z,15.68
2019-02-26T12:45:40.661Z,15.44
2019-02-26T12:48:09.842Z,14.78
2019-02-26T12:50:36.631Z,14.31
2019-02-26T12:53:02.906Z,14.89
2019-02-26T12:55:32.903Z,15.10
2019-02-26T12:57:59.404Z,15.30
2019-02-26T13:00:26.735Z,14.60
2019-02-26T13:02:54.605Z,14.88
2019-02-26T13:05:23.144Z,16.65
2019-02-26T13:07:50.497Z,15.34
2019-02-26T13:10:25.963Z,14.65
2019-02-26T13:12:59.077Z,14.85
2019-02-26T13:15:21.824Z,17.15
2019-02-26T13:17:54.285Z,15.70
2019-02-26T13:20:25.951Z,15.28
2019-02-26T13:22:56.937Z,16.41
2019-02-26T13:25:26.422Z,15.06
2019-02-26T13:27:49.791Z,15.25
2019-02-26T13:30:19.580Z,15.50
2019-02-26T13:35:15.567Z,16.77
2019-02-26T13:37:44.505Z,15.95
2019-02-26T13:40:13.112Z,14.29
2019-02-26T13:42:41.132Z,15.25
2019-02-26T13:45:11.824Z,15.53
2019-02-26T13:47:39.726Z,16.15
2019-02-26T13:50:08.540Z,15.93
2019-02-26T13:52:36.503Z,15.86
2019-02-26T13:55:04.440Z,16.35
2019-02-26T13:57:32.338Z,18.19
2019-02-26T14:00:00.321Z,18.61
2019-02-26T14:02:28.186Z,18.65
2019-02-26T14:04:56.098Z,18.68
2019-02-26T14:07:24.012Z,18.26
2019-02-26T14:09:51.988Z,18.66
2019-02-26T14:12:19.918Z,18.37
2019-02-26T14:14:47.850Z,17.95
2019-02-26T14:17:15.729Z,18.11
2019-02-26T14:19:47.514Z,19.83
2019-02-26T14:22:15.428Z,20.18
2019-02-26T14:24:43.415Z,20.75
2019-02-26T14:27:11.311Z,20.34
2019-02-26T14:29:39.225Z,18.24
2019-02-26T14:32:07.148Z,19.03
2019-02-26T14:34:35.069Z,18.83
2019-02-26T14:37:02.983Z,20.83
2019-02-26T14:39:30.877Z,20.67
2019-02-26T14:41:58.841Z,20.08
2019-02-26T14:44:26.748Z,22.06
2019-02-26T14:46:55.301Z,21.71
2019-02-26T14:49:22.796Z,22.02
2019-02-26T14:51:50.746Z,23.77
2019-02-26T14:54:18.631Z,25.60
2019-02-26T14:56:46.567Z,22.29
2019-02-26T14:59:14.472Z,24.58
2019-02-26T15:01:42.539Z,27.12
2019-02-26T15:04:10.442Z,28.12
2019-02-26T15:06:38.365Z,28.97
2019-02-26T15:09:06.257Z,27.54
2019-02-26T15:11:34.198Z,28.31
2019-02-26T15:14:02.093Z,26.40
2019-02-26T15:16:30.059Z,27.77
2019-02-26T15:18:57.994Z,24.63
2019-02-26T15:21:25.934Z,25.70
2019-02-26T15:23:53.884Z,23.47
2019-02-26T15:26:21.853Z,24.73
2019-02-26T15:28:50.729Z,26.17
2019-02-26T15:31:19.644Z,28.29
2019-02-26T15:33:47.586Z,27.38
2019-02-26T15:36:15.508Z,27.38
2019-02-26T15:38:43.463Z,28.79
2019-02-26T15:41:11.356Z,29.51
2019-02-26T15:43:39.271Z,28.93
2019-02-26T15:46:07.246Z,28.69
2019-02-26T15:48:36.354Z,30.32
2019-02-26T15:51:03.165Z,32.54
2019-02-26T15:53:32.043Z,30.62
2019-02-26T15:56:00.019Z,31.07
2019-02-26T15:58:27.999Z,30.87
2019-02-26T16:00:55.935Z,32.24
2019-02-26T16:03:23.857Z,31.49
2019-02-26T16:05:51.802Z,34.00
2019-02-26T16:08:19.763Z,36.47
2019-02-26T16:10:48.615Z,33.12
2019-02-26T16:13:16.458Z,32.90
2019-02-26T16:15:44.393Z,32.88
2019-02-26T16:18:13.199Z,33.40
2019-02-26T16:20:41.183Z,33.76
2019-02-26T16:23:09.092Z,34.39
2019-02-26T16:25:37.055Z,35.61
2019-02-26T16:28:04.967Z,36.26
2019-02-26T16:30:32.936Z,36.54
2019-02-26T16:33:00.859Z,38.90
2019-02-26T16:35:28.750Z,39.33
2019-02-26T16:37:56.679Z,39.73
2019-02-26T16:40:25.587Z,38.64
2019-02-26T16:42:54.470Z,46.54
2019-02-26T16:45:22.412Z,44.29
2019-02-26T16:47:50.660Z,46.64
2019-02-26T16:50:22.188Z,52.11
2019-02-26T16:52:50.108Z,53.86
2019-02-26T16:55:18.039Z,54.44
2019-02-26T16:57:45.949Z,55.41
2019-02-26T17:00:16.388Z,53.55
2019-02-26T17:02:44.710Z,60.26
2019-02-26T17:05:14.977Z,61.25
2019-02-26T17:07:40.637Z,50.48
2019-02-26T17:10:11.239Z,57.93
2019-02-26T17:12:40.099Z,61.60
2019-02-26T17:15:10.741Z,65.01
2019-02-26T17:17:38.663Z,60.26
2019-02-26T17:20:07.470Z,64.25
2019-02-26T17:22:38.388Z,60.55
2019-02-26T17:25:05.196Z,55.00
2019-02-26T17:27:33.093Z,66.48
2019-02-26T17:30:01.934Z,66.98
2019-02-26T17:32:31.825Z,65.38
2019-02-26T17:34:59.843Z,64.72
2019-02-26T17:37:27.745Z,66.74
2019-02-26T17:39:55.653Z,67.45
2019-02-26T17:42:23.734Z,66.40
2019-02-26T17:44:51.523Z,70.39
2019-02-26T17:47:19.436Z,68.76
2019-02-26T17:49:47.332Z,66.50
2019-02-26T17:52:15.247Z,65.52
2019-02-26T17:54:43.111Z,63.43
2019-02-26T17:57:11.095Z,63.46
2019-02-26T17:59:39.178Z,64.50
2019-02-26T18:02:07.054Z,66.25
2019-02-26T18:04:35.047Z,67.50
2019-02-26T18:07:02.943Z,67.64
2019-02-26T18:09:34.397Z,68.41
2019-02-26T18:11:59.788Z,68.94
2019-02-26T18:14:26.650Z,69.02
2019-02-26T18:16:54.589Z,69.74
2019-02-26T18:19:22.495Z,70.41
2019-02-26T18:21:51.760Z,69.96
2019-02-26T18:24:18.336Z,70.50
2019-02-26T18:26:46.241Z,70.31
2019-02-26T18:29:14.156Z,70.29
2019-02-26T18:31:42.041Z,71.04
2019-02-26T18:34:11.817Z,70.77
2019-02-26T18:36:37.936Z,70.87
2019-02-26T18:39:05.844Z,70.54
2019-02-26T18:41:35.250Z,71.99
2019-02-26T18:44:05.504Z,72.15
2019-02-26T18:46:33.750Z,69.87
2019-02-26T18:49:01.336Z,71.15
2019-02-26T18:51:29.271Z,73.35
2019-02-26T18:53:57.271Z,74.40
2019-02-26T18:56:25.203Z,73.67
2019-02-26T18:58:53.105Z,73.34
2019-02-26T19:01:20.992Z,74.11
2019-02-26T19:03:49.027Z,72.97
2019-02-26T19:06:16.941Z,72.37
2019-02-26T19:08:44.840Z,73.96
2019-02-26T19:11:16.639Z,71.44
2019-02-26T19:13:40.654Z,65.66
2019-02-26T19:16:08.561Z,71.37
2019-02-26T19:18:38.392Z,68.40
2019-02-26T19:21:04.417Z,69.08
2019-02-26T19:23:32.347Z,71.46
2019-02-26T19:26:00.248Z,72.27
2019-02-26T19:28:28.132Z,75.65
2019-02-26T19:30:56.064Z,79.48
2019-02-26T19:33:24.009Z,75.10
2019-02-26T19:35:51.923Z,75.86
2019-02-26T19:38:19.842Z,77.84
2019-02-26T19:40:50.541Z,72.25
2019-02-26T19:43:18.484Z,70.07
2019-02-26T19:45:46.409Z,77.17
2019-02-26T19:48:14.303Z,79.67
2019-02-26T19:50:45.602Z,79.39
2019-02-26T19:53:10.770Z,78.27
2019-02-26T19:55:38.950Z,77.73
2019-02-26T19:58:07.105Z,78.30
2019-02-26T20:00:34.850Z,78.64
2019-02-26T20:03:05.249Z,78.07
2019-02-26T20:05:30.668Z,78.48
2019-02-26T20:07:58.640Z,78.90
2019-02-26T20:10:26.540Z,79.62
2019-02-26T20:12:54.431Z,79.69
2019-02-26T20:15:22.507Z,79.72
2019-02-26T20:17:50.247Z,80.29
2019-02-26T20:20:19.025Z,76.92
2019-02-26T20:22:47.011Z,79.09
2019-02-26T20:25:15.659Z,79.62
2019-02-26T20:27:43.556Z,81.11
2019-02-26T20:30:13.264Z,81.80
2019-02-26T20:32:41.170Z,81.78
2019-02-26T20:35:11.551Z,82.66
2019-02-26T20:37:37.124Z,79.87
2019-02-26T20:40:05.584Z,79.26
2019-02-26T20:42:33.498Z,82.67
2019-02-26T20:45:01.388Z,82.07
2019-02-26T20:47:31.610Z,83.27
2019-02-26T20:49:57.300Z,81.87
2019-02-26T20:52:25.264Z,83.67
2019-02-26T20:54:53.154Z,83.78
2019-02-26T20:57:21.053Z,83.78
2019-02-26T20:59:51.516Z,83.26
2019-02-26T21:02:16.932Z,84.00
2019-02-26T21:04:45.255Z,83.93
2019-02-26T21:07:13.675Z,82.93
2019-02-26T21:09:41.624Z,82.45
2019-02-26T21:12:08.683Z,82.74
2019-02-26T21:14:38.667Z,82.12
2019-02-26T21:17:04.541Z,82.34
2019-02-26T21:19:35.597Z,81.40
2019-02-26T21:22:00.434Z,82.46
2019-02-26T21:24:28.397Z,83.43
2019-02-26T21:26:56.375Z,83.07
2019-02-26T21:29:24.286Z,82.89
2019-02-26T21:31:52.740Z,81.71
2019-02-26T21:34:20.099Z,82.03
2019-02-26T21:36:47.994Z,81.53
2019-02-26T21:39:15.892Z,81.71
2019-02-26T21:41:43.829Z,81.19
2019-02-26T21:44:11.749Z,80.42
2019-02-26T21:46:39.668Z,79.52
2019-02-26T21:49:09.805Z,78.07
2019-02-26T21:51:35.594Z,78.17
2019-02-26T21:54:03.510Z,78.11
2019-02-26T21:56:31.391Z,78.72
2019-02-26T21:58:59.869Z,78.94
2019-02-26T22:01:27.272Z,78.67
2019-02-26T22:03:58.489Z,78.16
2019-02-26T22:06:24.173Z,78.20
2019-02-26T22:08:54.917Z,78.29
2019-02-26T22:11:21.971Z,79.19
2019-02-26T22:13:49.888Z,78.47
2019-02-26T22:16:18.669Z,79.48
2019-02-26T22:18:46.615Z,80.12
2019-02-26T22:21:14.516Z,79.53
2019-02-26T22:23:42.459Z,79.21
2019-02-26T22:26:10.340Z,78.80
2019-02-26T22:28:39.713Z,77.25
2019-02-26T22:31:06.579Z,77.53
2019-02-26T22:33:34.488Z,76.51
2019-02-26T22:36:02.458Z,78.22
2019-02-26T22:38:30.378Z,78.86
2019-02-26T22:40:59.887Z,80.09
2019-02-26T22:43:26.299Z,80.76
2019-02-26T22:45:54.208Z,80.93
2019-02-26T22:48:22.110Z,80.17
2019-02-26T22:50:50.039Z,79.96
2019-02-26T22:53:17.918Z,79.35
2019-02-26T22:55:49.602Z,78.92
2019-02-26T22:58:13.832Z,78.85
2019-02-26T23:01:04.022Z,79.13
2019-02-26T23:03:31.912Z,80.08
2019-02-26T23:05:59.831Z,80.04
2019-02-26T23:08:28.835Z,80.47
2019-02-26T23:11:01.375Z,80.93
2019-02-26T23:13:31.902Z,80.50
2019-02-26T23:15:57.315Z,80.98
2019-02-26T23:18:25.263Z,81.74
2019-02-26T23:20:53.171Z,82.42
2019-02-26T23:23:21.868Z,82.17
2019-02-26T23:25:49.015Z,82.58
2019-02-26T23:28:17.051Z,83.01
2019-02-26T23:30:44.950Z,82.99
2019-02-26T23:33:15.039Z,83.41
2019-02-26T23:35:40.747Z,83.47
2019-02-26T23:38:09.178Z,83.44
2019-02-26T23:40:36.702Z,83.76
2019-02-26T23:43:04.581Z,84.21
2019-02-26T23:45:32.500Z,84.20
2019-02-26T23:48:00.507Z,84.22
2019-02-26T23:50:28.574Z,84.51
2019-02-26T23:53:00.775Z,84.84
2019-02-26T23:55:24.604Z,84.78
2019-02-26T23:57:52.515Z,84.84
